createdAt,value
2018-02-04T00:01:50.293Z,100615.73
2018-02-04T00:04:17.805Z,100617.05
2018-02-04T00:06:45.324Z,100618.78
2018-02-04T00:09:12.834Z,100622.78
2018-02-04T00:11:40.367Z,100632.86
2018-02-04T00:14:07.873Z,100634.23
2018-02-04T00:16:35.394Z,100643.91
2018-02-04T00:19:02.966Z,100648.27
2018-02-04T00:21:30.449Z,100644.32
2018-02-04T00:23:57.961Z,100650.00
2018-02-04T00:26:25.471Z,100651.80
2018-02-04T00:28:52.984Z,100661.47
2018-02-04T00:31:20.523Z,100665.85
2018-02-04T00:33:48.031Z,100669.83
2018-02-04T00:36:15.553Z,100668.95
2018-02-04T00:38:43.061Z,100670.69
2018-02-04T00:41:10.575Z,100677.75
2018-02-04T00:43:38.106Z,100680.81
2018-02-04T00:46:05.620Z,100690.91
2018-02-04T00:48:33.141Z,100682.56
2018-02-04T00:51:00.644Z,100683.92
2018-02-04T00:53:28.160Z,100683.90
2018-02-04T00:55:55.673Z,100688.30
2018-02-04T00:58:23.182Z,100688.33
2018-02-04T01:00:50.692Z,100694.48
2018-02-04T01:03:18.201Z,100692.70
2018-02-04T01:05:45.706Z,100697.55
2018-02-04T01:08:13.226Z,100695.36
2018-02-04T01:10:40.741Z,100697.57
2018-02-04T01:13:08.265Z,100696.25
2018-02-04T01:15:35.776Z,100702.80
2018-02-04T01:18:03.288Z,100708.97
2018-02-04T01:20:30.806Z,100707.22
2018-02-04T01:22:58.321Z,100707.68
2018-02-04T01:25:25.832Z,100703.69
2018-02-04T01:27:53.342Z,100707.66
2018-02-04T01:30:20.859Z,100710.75
2018-02-04T01:32:48.371Z,100704.56
2018-02-04T01:35:15.885Z,100705.03
2018-02-04T01:37:43.405Z,100701.96
2018-02-04T01:40:10.918Z,100700.22
2018-02-04T01:42:38.436Z,100700.20
2018-02-04T01:45:05.957Z,100711.19
2018-02-04T01:47:33.490Z,100703.27
2018-02-04T01:50:00.997Z,100705.48
2018-02-04T01:52:28.513Z,100706.38
2018-02-04T01:54:56.033Z,100711.64
2018-02-04T01:57:23.544Z,100716.45
2018-02-04T01:59:51.053Z,100722.16
2018-02-04T02:02:18.571Z,100723.48
2018-02-04T02:04:46.085Z,100730.09
2018-02-04T02:07:13.596Z,100741.95
2018-02-04T02:09:41.125Z,100743.70
2018-02-04T02:12:08.642Z,100743.67
2018-02-04T02:14:36.150Z,100744.56
2018-02-04T02:17:03.674Z,100752.05
2018-02-04T02:19:31.181Z,100747.20
2018-02-04T02:21:58.701Z,100749.83
2018-02-04T02:24:26.223Z,100758.19
2018-02-04T02:26:53.741Z,100755.55
2018-02-04T02:29:21.258Z,100757.76
2018-02-04T02:31:48.788Z,100759.95
2018-02-04T02:34:16.301Z,100761.27
2018-02-04T02:36:43.828Z,100764.77
2018-02-04T02:39:11.348Z,100766.53
2018-02-04T02:41:38.902Z,100766.96
2018-02-04T02:44:06.421Z,100771.77
2018-02-04T02:46:33.933Z,100777.50
2018-02-04T02:49:01.452Z,100775.30
2018-02-04T02:51:28.981Z,100778.79
2018-02-04T02:53:56.498Z,100771.31
2018-02-04T02:56:24.001Z,100778.78
2018-02-04T02:58:51.512Z,100788.00
2018-02-04T03:01:19.024Z,100795.91
2018-02-04T03:03:46.549Z,100792.38
2018-02-04T03:06:14.062Z,100791.06
2018-02-04T03:08:41.582Z,100789.30
2018-02-04T03:11:09.097Z,100791.94
2018-02-04T03:13:36.614Z,100789.30
2018-02-04T03:16:04.140Z,100800.73
2018-02-04T03:18:31.659Z,100801.16
2018-02-04T03:20:59.171Z,100802.48
2018-02-04T03:23:26.676Z,100801.15
2018-02-04T03:25:54.195Z,100796.73
2018-02-04T03:28:21.704Z,100801.13
2018-02-04T03:30:49.231Z,100809.48
2018-02-04T03:33:16.749Z,100822.63
2018-02-04T03:35:44.255Z,100832.72
2018-02-04T03:38:11.784Z,100840.64
2018-02-04T03:40:39.290Z,100848.95
2018-02-04T03:43:06.803Z,100855.52
2018-02-04T03:45:34.304Z,100850.70
2018-02-04T03:48:01.842Z,100848.03
2018-02-04T03:50:29.356Z,100862.08
2018-02-04T03:52:56.877Z,100874.37
2018-02-04T03:55:24.517Z,100880.03
2018-02-04T03:57:52.043Z,100881.35
2018-02-04T04:00:19.620Z,100879.12
2018-02-04T04:02:47.132Z,100880.88
2018-02-04T04:05:14.660Z,100882.20
2018-02-04T04:07:42.172Z,100886.59
2018-02-04T04:10:09.776Z,100884.81
2018-02-04T04:12:37.292Z,100888.77
2018-02-04T04:15:04.895Z,100897.05
2018-02-04T04:17:32.420Z,100896.16
2018-02-04T04:19:59.938Z,100903.62
2018-02-04T04:22:27.469Z,100908.42
2018-02-04T04:24:54.993Z,100911.49
2018-02-04T04:27:22.517Z,100924.22
2018-02-04T04:29:50.057Z,100929.92
2018-02-04T04:32:17.607Z,100930.77
2018-02-04T04:34:45.119Z,100937.78
2018-02-04T04:37:12.641Z,100936.47
2018-02-04T04:39:40.153Z,100942.17
2018-02-04T04:42:07.669Z,100945.24
2018-02-04T04:44:35.324Z,100941.70
2018-02-04T04:47:02.841Z,100953.55
2018-02-04T04:49:30.385Z,100954.39
2018-02-04T04:51:57.913Z,100953.11
2018-02-04T04:54:25.430Z,100958.37
2018-02-04T04:56:52.945Z,100957.90
2018-02-04T04:59:20.464Z,100966.27
2018-02-04T05:01:47.977Z,100968.42
2018-02-04T05:04:15.494Z,100976.72
2018-02-04T05:06:43.010Z,100979.36
2018-02-04T05:09:10.542Z,100986.37
2018-02-04T05:11:38.061Z,100989.00
2018-02-04T05:14:05.580Z,100987.66
2018-02-04T05:16:33.095Z,100995.11
2018-02-04T05:19:00.616Z,100997.34
2018-02-04T05:21:28.125Z,101000.81
2018-02-04T05:23:55.639Z,101009.14
2018-02-04T05:26:23.167Z,101010.42
2018-02-04T05:28:50.684Z,101017.91
2018-02-04T05:31:18.200Z,101019.66
2018-02-04T05:33:45.712Z,101017.91
2018-02-04T05:36:13.220Z,101020.10
2018-02-04T05:38:40.738Z,101024.89
2018-02-04T05:41:08.253Z,101021.38
2018-02-04T05:43:35.765Z,101032.78
2018-02-04T05:46:03.393Z,101040.23
2018-02-04T05:48:30.903Z,101044.58
2018-02-04T05:50:58.407Z,101049.88
2018-02-04T05:53:25.924Z,101051.23
2018-02-04T05:55:53.438Z,101062.20
2018-02-04T05:58:20.965Z,101067.91
2018-02-04T06:00:48.476Z,101075.32
2018-02-04T06:03:16.003Z,101077.11
2018-02-04T06:05:43.539Z,101081.02
2018-02-04T06:08:11.068Z,101088.03
2018-02-04T06:10:38.683Z,101098.55
2018-02-04T06:13:06.344Z,101100.31
2018-02-04T06:15:33.900Z,101116.53
2018-02-04T06:18:01.426Z,101118.73
2018-02-04T06:20:28.949Z,101120.00
2018-02-04T06:22:56.484Z,101127.89
2018-02-04T06:25:23.997Z,101130.92
2018-02-04T06:27:51.514Z,101132.72
2018-02-04T06:30:19.032Z,101138.33
2018-02-04T06:32:46.548Z,101141.00
2018-02-04T06:35:14.066Z,101148.41
2018-02-04T06:37:41.577Z,101151.47
2018-02-04T06:40:09.124Z,101163.75
2018-02-04T06:42:36.632Z,101168.09
2018-02-04T06:45:04.139Z,101172.91
2018-02-04T06:47:31.662Z,101174.22
2018-02-04T06:49:59.202Z,101185.63
2018-02-04T06:52:26.790Z,101192.69
2018-02-04T06:54:54.313Z,101194.01
2018-02-04T06:57:21.841Z,101195.81
2018-02-04T06:59:49.371Z,101195.77
2018-02-04T07:02:16.889Z,101202.44
2018-02-04T07:04:44.406Z,101202.34
2018-02-04T07:07:11.934Z,101211.11
2018-02-04T07:09:39.459Z,101214.31
2018-02-04T07:12:06.988Z,101230.60
2018-02-04T07:14:34.513Z,101224.36
2018-02-04T07:17:02.042Z,101236.69
2018-02-04T07:19:29.574Z,101238.44
2018-02-04T07:21:57.112Z,101241.19
2018-02-04T07:24:24.666Z,101246.10
2018-02-04T07:26:52.208Z,101249.67
2018-02-04T07:29:19.715Z,101251.53
2018-02-04T07:31:47.242Z,101257.67
2018-02-04T07:34:14.763Z,101270.88
2018-02-04T07:36:42.288Z,101268.16
2018-02-04T07:39:09.809Z,101273.08
2018-02-04T07:41:37.325Z,101276.92
2018-02-04T07:44:04.841Z,101270.34
2018-02-04T07:46:32.368Z,101276.92
2018-02-04T07:48:59.888Z,101284.47
2018-02-04T07:51:27.399Z,101283.31
2018-02-04T07:53:54.939Z,101289.99
2018-02-04T07:56:22.473Z,101289.34
2018-02-04T07:58:49.994Z,101299.02
2018-02-04T08:01:17.514Z,101310.87
2018-02-04T08:03:45.034Z,101302.61
2018-02-04T08:06:12.560Z,101305.33
2018-02-04T08:08:40.097Z,101310.64
2018-02-04T08:11:07.622Z,101310.02
2018-02-04T08:13:35.136Z,101315.40
2018-02-04T08:16:02.701Z,101316.86
2018-02-04T08:18:30.236Z,101320.98
2018-02-04T08:20:57.740Z,101319.47
2018-02-04T08:23:25.261Z,101324.71
2018-02-04T08:25:52.835Z,101316.95
2018-02-04T08:28:20.332Z,101325.77
2018-02-04T08:30:47.840Z,101328.43
2018-02-04T08:33:15.350Z,101327.75
2018-02-04T08:35:42.868Z,101331.75
2018-02-04T08:38:10.377Z,101329.63
2018-02-04T08:40:37.906Z,101331.39
2018-02-04T08:43:05.413Z,101336.31
2018-02-04T08:45:32.915Z,101334.89
2018-02-04T08:48:00.415Z,101344.64
2018-02-04T08:50:27.925Z,101344.64
2018-02-04T08:52:55.436Z,101346.02
2018-02-04T08:55:22.940Z,101349.97
2018-02-04T08:57:50.462Z,101354.41
2018-02-04T09:00:17.974Z,101356.17
2018-02-04T09:02:45.486Z,101357.49
2018-02-04T09:05:13.001Z,101360.11
2018-02-04T09:07:40.515Z,101364.88
2018-02-04T09:10:08.034Z,101367.08
2018-02-04T09:12:35.542Z,101378.56
2018-02-04T09:15:03.054Z,101378.97
2018-02-04T09:17:30.560Z,101381.89
2018-02-04T09:19:58.069Z,101379.92
2018-02-04T09:22:25.616Z,101386.20
2018-02-04T09:24:53.141Z,101385.48
2018-02-04T09:27:20.655Z,101393.58
2018-02-04T09:29:48.177Z,101393.34
2018-02-04T09:32:15.697Z,101398.58
2018-02-04T09:34:43.213Z,101401.01
2018-02-04T09:37:10.724Z,101400.24
2018-02-04T09:39:38.243Z,101407.58
2018-02-04T09:42:05.763Z,101420.98
2018-02-04T09:44:33.288Z,101413.78
2018-02-04T09:47:00.811Z,101417.30
2018-02-04T09:49:28.325Z,101409.22
2018-02-04T09:51:55.836Z,101413.95
2018-02-04T09:54:23.344Z,101415.37
2018-02-04T09:56:50.861Z,101419.71
2018-02-04T09:59:18.372Z,101428.77
2018-02-04T10:01:45.896Z,101430.51
2018-02-04T10:04:13.408Z,101425.88
2018-02-04T10:06:40.933Z,101431.83
2018-02-04T10:09:08.452Z,101435.27
2018-02-04T10:11:35.970Z,101434.38
2018-02-04T10:14:03.487Z,101437.23
2018-02-04T10:16:31.006Z,101439.44
2018-02-04T10:18:58.522Z,101444.41
2018-02-04T10:21:26.033Z,101435.54
2018-02-04T10:23:53.548Z,101440.60
2018-02-04T10:26:21.089Z,101447.99
2018-02-04T10:28:48.611Z,101449.67
2018-02-04T10:31:16.131Z,101453.04
2018-02-04T10:33:43.662Z,101468.70
2018-02-04T10:36:11.191Z,101463.64
2018-02-04T10:38:38.763Z,101472.83
2018-02-04T10:41:06.280Z,101475.40
2018-02-04T10:43:33.794Z,101481.00
2018-02-04T10:46:01.322Z,101474.92
2018-02-04T10:48:28.839Z,101472.17
2018-02-04T10:51:02.002Z,101488.24
2018-02-04T10:53:40.310Z,101479.48
2018-02-04T10:56:07.836Z,101480.22
2018-02-04T10:58:35.345Z,101487.94
2018-02-04T11:01:02.856Z,101491.02
2018-02-04T11:03:30.368Z,101497.61
2018-02-04T11:05:57.886Z,101498.97
2018-02-04T11:08:25.402Z,101491.05
2018-02-04T11:10:52.921Z,101491.06
2018-02-04T11:13:20.432Z,101494.20
2018-02-04T11:15:47.944Z,101494.72
2018-02-04T11:18:15.453Z,101508.91
2018-02-04T11:20:42.974Z,101498.27
2018-02-04T11:23:10.496Z,101504.86
2018-02-04T11:25:38.007Z,101499.11
2018-02-04T11:28:05.537Z,101507.09
2018-02-04T11:30:33.078Z,101503.12
2018-02-04T11:33:00.578Z,101502.25
2018-02-04T11:35:28.129Z,101503.97
2018-02-04T11:37:55.610Z,101507.95
2018-02-04T11:40:23.126Z,101505.66
2018-02-04T11:42:50.763Z,101504.81
2018-02-04T11:45:18.280Z,101496.91
2018-02-04T11:47:45.809Z,101509.36
2018-02-04T11:50:13.317Z,101516.00
2018-02-04T11:52:40.838Z,101521.76
2018-02-04T11:55:08.336Z,101516.00
2018-02-04T11:57:35.844Z,101523.49
2018-02-04T12:00:03.352Z,101519.52
2018-02-04T12:02:30.855Z,101521.30
2018-02-04T12:04:58.369Z,101519.11
2018-02-04T12:07:25.870Z,101521.28
2018-02-04T12:09:53.392Z,101524.38
2018-02-04T12:12:20.894Z,101529.23
2018-02-04T12:14:48.405Z,101528.37
2018-02-04T12:17:15.912Z,101528.80
2018-02-04T12:19:43.430Z,101535.01
2018-02-04T12:22:10.938Z,101530.59
2018-02-04T12:24:38.460Z,101539.41
2018-02-04T12:27:05.970Z,101540.31
2018-02-04T12:29:33.481Z,101536.31
2018-02-04T12:32:01.002Z,101533.67
2018-02-04T12:34:28.505Z,101542.48
2018-02-04T12:36:56.861Z,101542.50
2018-02-04T12:39:24.376Z,101544.28
2018-02-04T12:41:51.893Z,101547.81
2018-02-04T12:44:19.397Z,101542.52
2018-02-04T12:46:46.936Z,101549.14
2018-02-04T12:49:14.441Z,101553.09
2018-02-04T12:51:41.948Z,101554.83
2018-02-04T12:54:09.457Z,101559.23
2018-02-04T12:56:36.964Z,101568.48
2018-02-04T12:59:04.459Z,101564.47
2018-02-04T13:01:31.972Z,101570.21
2018-02-04T13:03:59.476Z,101574.23
2018-02-04T13:06:27.000Z,101580.88
2018-02-04T13:08:54.521Z,101575.52
2018-02-04T13:11:22.021Z,101574.19
2018-02-04T13:13:49.532Z,101580.00
2018-02-04T13:16:17.052Z,101593.31
2018-02-04T13:18:44.621Z,101587.53
2018-02-04T13:21:12.102Z,101587.50
2018-02-04T13:23:39.626Z,101591.88
2018-02-04T13:26:07.147Z,101594.05
2018-02-04T13:28:34.772Z,101593.58
2018-02-04T13:31:02.243Z,101600.73
2018-02-04T13:33:29.765Z,101601.09
2018-02-04T13:35:57.273Z,101606.91
2018-02-04T13:38:24.789Z,101618.45
2018-02-04T13:40:52.332Z,101625.55
2018-02-04T13:43:19.844Z,101629.58
2018-02-04T13:45:47.354Z,101634.88
2018-02-04T13:48:14.873Z,101646.36
2018-02-04T13:50:42.380Z,101648.13
2018-02-04T13:53:09.893Z,101650.76
2018-02-04T13:55:37.398Z,101655.20
2018-02-04T13:58:04.918Z,101661.81
2018-02-04T14:00:32.463Z,101660.46
2018-02-04T14:02:59.970Z,101662.22
2018-02-04T14:05:27.537Z,101671.87
2018-02-04T14:07:55.028Z,101673.58
2018-02-04T14:10:22.558Z,101678.47
2018-02-04T14:12:50.060Z,101676.74
2018-02-04T14:15:17.570Z,101685.97
2018-02-04T14:17:45.082Z,101682.86
2018-02-04T14:20:12.584Z,101685.05
2018-02-04T14:22:40.092Z,101693.45
2018-02-04T14:25:07.617Z,101698.27
2018-02-04T14:27:35.126Z,101699.13
2018-02-04T14:30:02.628Z,101709.25
2018-02-04T14:32:30.146Z,101721.58
2018-02-04T14:34:57.661Z,101729.90
2018-02-04T14:37:25.178Z,101728.61
2018-02-04T14:39:52.735Z,101732.13
2018-02-04T14:42:20.220Z,101730.34
2018-02-04T14:44:47.717Z,101733.81
2018-02-04T14:47:15.226Z,101732.02
2018-02-04T14:49:42.745Z,101744.88
2018-02-04T14:52:10.258Z,101743.11
2018-02-04T14:54:37.774Z,101744.44
2018-02-04T14:57:05.314Z,101751.87
2018-02-04T14:59:32.819Z,101750.94
2018-02-04T15:02:00.331Z,101758.44
2018-02-04T15:04:27.844Z,101754.02
2018-02-04T15:06:55.362Z,101753.93
2018-02-04T15:09:22.874Z,101764.04
2018-02-04T15:11:50.381Z,101758.75
2018-02-04T15:14:17.885Z,101765.33
2018-02-04T15:16:45.393Z,101765.26
2018-02-04T15:19:12.897Z,101761.33
2018-02-04T15:21:40.413Z,101773.64
2018-02-04T15:24:07.917Z,101779.81
2018-02-04T15:26:35.433Z,101785.02
2018-02-04T15:29:02.936Z,101788.99
2018-02-04T15:31:30.463Z,101793.28
2018-02-04T15:33:57.966Z,101798.56
2018-02-04T15:36:25.477Z,101799.45
2018-02-04T15:38:53.005Z,101803.50
2018-02-04T15:41:20.531Z,101810.52
2018-02-04T15:43:48.044Z,101814.40
2018-02-04T15:46:15.554Z,101817.52
2018-02-04T15:48:43.065Z,101821.45
2018-02-04T15:51:10.569Z,101821.89
2018-02-04T15:53:38.080Z,101828.94
2018-02-04T15:56:05.588Z,101831.09
2018-02-04T15:58:33.096Z,101833.22
2018-02-04T16:01:00.605Z,101841.15
2018-02-04T16:03:28.124Z,101849.56
2018-02-04T16:05:55.641Z,101846.87
2018-02-04T16:08:23.161Z,101846.82
2018-02-04T16:10:50.709Z,101857.00
2018-02-04T16:13:18.224Z,101853.17
2018-02-04T16:15:45.831Z,101857.98
2018-02-04T16:18:13.371Z,101861.86
2018-02-04T16:20:40.930Z,101869.73
2018-02-04T16:23:08.433Z,101869.29
2018-02-04T16:25:35.955Z,101875.51
2018-02-04T16:28:03.477Z,101877.66
2018-02-04T16:30:31.009Z,101885.98
2018-02-04T16:32:58.538Z,101881.98
2018-02-04T16:35:26.069Z,101896.07
2018-02-04T16:37:53.663Z,101896.12
2018-02-04T16:40:21.182Z,101898.71
2018-02-04T16:42:48.706Z,101898.23
2018-02-04T16:45:16.229Z,101897.34
2018-02-04T16:47:43.759Z,101904.87
2018-02-04T16:50:11.287Z,101907.53
2018-02-04T16:52:38.814Z,101904.53
2018-02-04T16:55:06.332Z,101912.38
2018-02-04T16:57:33.864Z,101916.05
2018-02-04T17:00:01.382Z,101926.97
2018-02-04T17:02:28.925Z,101934.02
2018-02-04T17:04:56.449Z,101928.72
2018-02-04T17:07:23.964Z,101932.19
2018-02-04T17:09:51.487Z,101939.53
2018-02-04T17:12:19.017Z,101940.40
2018-02-04T17:14:46.537Z,101941.72
2018-02-04T17:17:14.066Z,101949.70
2018-02-04T17:19:41.592Z,101946.06
2018-02-04T17:22:09.101Z,101950.41
2018-02-04T17:24:36.636Z,101952.98
2018-02-04T17:27:04.162Z,101950.86
2018-02-04T17:29:31.676Z,101953.05
2018-02-04T17:31:59.190Z,101953.50
2018-02-04T17:34:26.710Z,101963.62
2018-02-04T17:36:54.231Z,101964.13
2018-02-04T17:39:21.782Z,101977.28
2018-02-04T17:41:49.316Z,101977.34
2018-02-04T17:44:16.835Z,101984.44
2018-02-04T17:46:44.344Z,101981.25
2018-02-04T17:49:11.985Z,101991.44
2018-02-04T17:51:39.496Z,101989.61
2018-02-04T17:54:07.025Z,101999.30
2018-02-04T17:56:34.538Z,102004.27
2018-02-04T17:59:02.070Z,102005.27
2018-02-04T18:01:29.582Z,102007.97
2018-02-04T18:03:57.123Z,102019.81
2018-02-04T18:06:24.665Z,102025.64
2018-02-04T18:08:52.192Z,102021.69
2018-02-04T18:11:19.721Z,102031.83
2018-02-04T18:13:47.252Z,102030.06
2018-02-04T18:16:14.770Z,102036.13
2018-02-04T18:18:42.308Z,102035.73
2018-02-04T18:21:09.834Z,102040.97
2018-02-04T18:23:37.361Z,102034.85
2018-02-04T18:26:04.890Z,102040.58
2018-02-04T18:28:32.405Z,102037.87
2018-02-04T18:30:59.936Z,102040.95
2018-02-04T18:33:27.450Z,102038.82
2018-02-04T18:35:54.997Z,102044.16
2018-02-04T18:38:22.521Z,102046.42
2018-02-04T18:40:50.043Z,102045.11
2018-02-04T18:43:17.563Z,102045.53
2018-02-04T18:45:45.089Z,102043.66
2018-02-04T18:48:12.621Z,102053.42
2018-02-04T18:50:40.146Z,102054.23
2018-02-04T18:53:07.669Z,102055.55
2018-02-04T18:55:35.189Z,102061.73
2018-02-04T18:58:02.749Z,102060.85
2018-02-04T19:00:30.272Z,102065.82
2018-02-04T19:02:57.790Z,102061.91
2018-02-04T19:05:25.428Z,102069.08
2018-02-04T19:07:52.988Z,102074.75
2018-02-04T19:10:20.515Z,102074.33
2018-02-04T19:12:48.049Z,102084.59
2018-02-04T19:15:15.567Z,102075.05
2018-02-04T19:17:43.087Z,102075.05
2018-02-04T19:20:10.609Z,102083.24
2018-02-04T19:22:38.150Z,102084.69
2018-02-04T19:25:05.676Z,102090.42
2018-02-04T19:27:33.194Z,102090.54
2018-02-04T19:30:00.713Z,102091.30
2018-02-04T19:32:28.233Z,102094.94
2018-02-04T19:34:55.762Z,102102.83
2018-02-04T19:37:23.291Z,102105.53
2018-02-04T19:39:50.817Z,102109.06
2018-02-04T19:42:18.350Z,102113.09
2018-02-04T19:44:45.873Z,102115.41
2018-02-04T19:47:13.428Z,102117.72
2018-02-04T19:49:40.960Z,102124.73
2018-02-04T19:52:08.478Z,102119.45
2018-02-04T19:54:36.003Z,102116.73
2018-02-04T19:57:03.532Z,102127.76
2018-02-04T19:59:31.062Z,102124.73
2018-02-04T20:01:58.584Z,102119.06
2018-02-04T20:04:26.137Z,102123.02
2018-02-04T20:06:53.666Z,102127.48
2018-02-04T20:09:21.204Z,102131.02
2018-02-04T20:11:48.725Z,102137.20
2018-02-04T20:14:16.243Z,102142.11
2018-02-04T20:16:43.780Z,102137.30
2018-02-04T20:19:11.299Z,102142.53
2018-02-04T20:21:38.826Z,102146.84
2018-02-04T20:24:06.364Z,102151.13
2018-02-04T20:26:33.888Z,102159.23
2018-02-04T20:29:01.406Z,102159.18
2018-02-04T20:31:28.931Z,102164.34
2018-02-04T20:34:08.102Z,102160.78
2018-02-04T20:36:35.625Z,102169.45
2018-02-04T20:39:03.164Z,102169.89
2018-02-04T20:41:30.695Z,102182.30
2018-02-04T20:43:58.225Z,102181.88
2018-02-04T20:46:25.789Z,102178.83
2018-02-04T20:48:53.381Z,102181.36
2018-02-04T20:51:20.880Z,102184.45
2018-02-04T20:53:48.419Z,102187.03
2018-02-04T20:56:15.957Z,102191.44
2018-02-04T20:58:43.469Z,102195.33
2018-02-04T21:01:11.009Z,102192.27
2018-02-04T21:03:38.535Z,102196.72
2018-02-04T21:06:06.066Z,102196.22
2018-02-04T21:08:33.588Z,102200.24
2018-02-04T21:11:01.111Z,102203.72
2018-02-04T21:13:28.637Z,102214.36
2018-02-04T21:15:56.166Z,102215.18
2018-02-04T21:18:23.688Z,102220.47
2018-02-04T21:20:51.201Z,102227.21
2018-02-04T21:23:18.720Z,102226.34
2018-02-04T21:25:46.245Z,102228.61
2018-02-04T21:28:13.765Z,102229.66
2018-02-04T21:30:41.313Z,102234.00
2018-02-04T21:33:08.833Z,102237.67
2018-02-04T21:35:36.353Z,102238.91
2018-02-04T21:38:03.875Z,102241.91
2018-02-04T21:40:31.407Z,102248.09
2018-02-04T21:42:58.944Z,102246.39
2018-02-04T21:45:26.486Z,102256.78
2018-02-04T21:47:54.014Z,102261.67
2018-02-04T21:50:21.527Z,102257.63
2018-02-04T21:52:49.129Z,102261.09
2018-02-04T21:55:16.694Z,102254.85
2018-02-04T21:57:44.230Z,102257.14
2018-02-04T22:00:11.984Z,102264.98
2018-02-04T22:02:39.360Z,102268.86
2018-02-04T22:05:06.879Z,102268.13
2018-02-04T22:07:34.415Z,102269.39
2018-02-04T22:10:01.947Z,102265.32
2018-02-04T22:12:29.494Z,102270.44
2018-02-04T22:14:57.029Z,102279.17
2018-02-04T22:17:24.571Z,102279.97
2018-02-04T22:19:52.118Z,102283.92
2018-02-04T22:22:19.633Z,102283.33
2018-02-04T22:24:47.148Z,102283.80
2018-02-04T22:27:14.781Z,102279.81
2018-02-04T22:29:42.297Z,102279.74
2018-02-04T22:32:09.889Z,102290.81
2018-02-04T22:34:37.449Z,102289.86
2018-02-04T22:37:04.984Z,102296.08
2018-02-04T22:39:32.499Z,102289.16
2018-02-04T22:42:00.021Z,102293.56
2018-02-04T22:44:27.576Z,102301.11
2018-02-04T22:46:55.251Z,102298.86
2018-02-04T22:49:22.817Z,102305.16
2018-02-04T22:51:50.340Z,102305.53
2018-02-04T22:54:17.861Z,102308.75
2018-02-04T22:56:45.383Z,102314.12
2018-02-04T22:59:12.897Z,102315.92
2018-02-04T23:01:40.413Z,102314.23
2018-02-04T23:04:07.933Z,102316.88
2018-02-04T23:06:35.522Z,102317.39
2018-02-04T23:09:03.054Z,102318.20
2018-02-04T23:11:30.657Z,102319.07
2018-02-04T23:13:58.312Z,102325.25
2018-02-04T23:16:25.834Z,102333.16
2018-02-04T23:18:53.357Z,102331.39
2018-02-04T23:21:20.882Z,102334.94
2018-02-04T23:23:48.397Z,102330.43
2018-02-04T23:26:15.908Z,102331.34
2018-02-04T23:28:43.452Z,102331.25
2018-02-04T23:31:10.973Z,102339.22
2018-02-04T23:33:38.488Z,102341.37
2018-02-04T23:36:05.999Z,102341.18
2018-02-04T23:38:33.542Z,102345.06
2018-02-04T23:41:01.062Z,102345.84
2018-02-04T23:43:28.613Z,102348.06
2018-02-04T23:45:56.130Z,102348.91
2018-02-04T23:48:23.653Z,102340.41
2018-02-04T23:50:51.170Z,102345.83
2018-02-04T23:53:18.744Z,102340.94
2018-02-04T23:55:46.268Z,102345.31
2018-02-04T23:58:13.803Z,102347.95
